createdAt,value
2022-08-02T00:02:56.365Z,100.00
2022-08-02T00:05:58.936Z,100.00
2022-08-02T00:09:01.583Z,100.00
2022-08-02T00:12:04.542Z,100.00
2022-08-02T00:15:10.099Z,100.00
2022-08-02T00:18:18.310Z,100.00
2022-08-02T00:21:20.926Z,100.00
2022-08-02T00:24:30.877Z,100.00
2022-08-02T00:27:33.728Z,100.00
2022-08-02T00:30:37.612Z,100.00
2022-08-02T00:34:05.139Z,100.00
2022-08-02T00:37:02.563Z,100.00
2022-08-02T00:40:06.088Z,100.00
2022-08-02T00:43:10.499Z,100.00
2022-08-02T00:46:15.125Z,100.00
2022-08-02T00:49:17.676Z,100.00
2022-08-02T00:52:24.622Z,100.00
2022-08-02T00:55:31.457Z,100.00
2022-08-02T00:58:34.267Z,100.00
2022-08-02T01:01:57.339Z,100.00
2022-08-02T01:05:00.756Z,100.00
2022-08-02T01:08:03.828Z,100.00
2022-08-02T01:11:06.471Z,100.00
2022-08-02T01:14:11.189Z,100.00
2022-08-02T01:17:21.429Z,100.00
2022-08-02T01:20:50.527Z,100.00
2022-08-02T01:24:05.159Z,100.00
2022-08-02T01:27:21.260Z,100.00
2022-08-02T01:30:28.038Z,100.00
2022-08-02T01:33:36.433Z,100.00
2022-08-02T01:36:41.114Z,100.00
2022-08-02T01:39:46.682Z,100.00
2022-08-02T01:42:52.550Z,100.00
2022-08-02T01:45:57.820Z,100.00
2022-08-02T01:49:04.498Z,100.00
2022-08-02T01:52:26.127Z,100.00
2022-08-02T01:55:56.782Z,100.00
2022-08-02T01:58:56.903Z,100.00
2022-08-02T02:02:02.587Z,100.00
2022-08-02T02:05:07.255Z,100.00
2022-08-02T02:08:11.484Z,100.00
2022-08-02T02:12:09.832Z,100.00
2022-08-02T02:14:38.188Z,100.00
2022-08-02T02:18:11.422Z,100.00
2022-08-02T02:21:07.614Z,100.00
2022-08-02T02:24:11.673Z,100.00
2022-08-02T02:27:16.163Z,100.00
2022-08-02T02:30:18.915Z,100.00
2022-08-02T02:33:27.677Z,100.00
2022-08-02T02:36:35.171Z,100.00
2022-08-02T02:39:39.648Z,100.00
2022-08-02T02:42:43.353Z,100.00
2022-08-02T02:45:54.496Z,100.00
2022-08-02T02:48:58.622Z,100.00
2022-08-02T02:52:01.906Z,100.00
2022-08-02T02:55:05.149Z,100.00
2022-08-02T02:58:08.767Z,100.00
2022-08-02T03:01:55.651Z,100.00
2022-08-02T03:05:02.914Z,100.00
2022-08-02T03:08:06.264Z,100.00
2022-08-02T03:11:10.527Z,100.00
2022-08-02T03:14:13.651Z,100.00
2022-08-02T03:17:16.515Z,100.00
2022-08-02T03:20:22.640Z,100.00
2022-08-02T03:23:25.159Z,100.00
2022-08-02T03:26:27.673Z,100.00
2022-08-02T03:29:34.306Z,100.00
2022-08-02T03:32:38.735Z,100.00
2022-08-02T03:35:45.509Z,100.00
2022-08-02T03:38:48.861Z,100.00
2022-08-02T03:41:52.166Z,100.00
2022-08-02T03:44:56.219Z,100.00
2022-08-02T03:47:59.564Z,100.00
2022-08-02T03:51:03.964Z,100.00
2022-08-02T03:54:07.430Z,100.00
2022-08-02T03:57:11.377Z,100.00
2022-08-02T04:00:19.478Z,100.00
2022-08-02T04:03:22.103Z,100.00
2022-08-02T04:06:27.191Z,100.00
2022-08-02T04:09:31.132Z,100.00
2022-08-02T04:12:33.954Z,100.00
2022-08-02T04:15:37.454Z,100.00
2022-08-02T04:18:52.671Z,100.00
2022-08-02T04:21:59.022Z,100.00
2022-08-02T04:25:04.085Z,99.25
2022-08-02T04:28:16.733Z,92.67
2022-08-02T04:31:21.123Z,90.12
2022-08-02T04:34:23.773Z,84.51
2022-08-02T04:37:28.482Z,80.72
2022-08-02T04:40:31.070Z,78.86
2022-08-02T04:43:33.641Z,77.71
2022-08-02T04:46:37.141Z,75.29
2022-08-02T04:49:39.692Z,72.67
2022-08-02T04:52:45.895Z,70.43
2022-08-02T04:55:48.992Z,67.98
2022-08-02T04:58:51.544Z,65.50
2022-08-02T05:01:54.539Z,65.40
2022-08-02T05:04:57.033Z,67.30
2022-08-02T05:08:01.164Z,64.61
2022-08-02T05:11:03.689Z,62.62
2022-08-02T05:14:06.747Z,63.02
2022-08-02T05:17:09.273Z,59.34
2022-08-02T05:20:14.261Z,58.43
2022-08-02T05:23:18.144Z,59.49
2022-08-02T05:26:20.888Z,59.90
2022-08-02T05:29:23.934Z,60.86
2022-08-02T05:32:26.852Z,60.02
2022-08-02T05:35:29.411Z,63.53
2022-08-02T05:38:37.084Z,64.17
2022-08-02T05:41:40.104Z,68.03
2022-08-02T05:44:42.605Z,69.06
2022-08-02T05:47:45.642Z,70.05
2022-08-02T05:50:53.512Z,74.09
2022-08-02T05:54:08.688Z,76.14
2022-08-02T05:57:17.294Z,74.38
2022-08-02T06:00:21.205Z,72.29
2022-08-02T06:03:26.542Z,70.74
2022-08-02T06:06:30.781Z,70.38
2022-08-02T06:09:35.887Z,67.42
2022-08-02T06:12:46.666Z,64.07
2022-08-02T06:15:53.895Z,63.68
2022-08-02T06:18:56.995Z,60.37
2022-08-02T06:22:41.890Z,61.84
2022-08-02T06:25:50.145Z,61.69
2022-08-02T06:28:54.294Z,61.15
2022-08-02T06:31:57.616Z,59.68
2022-08-02T06:35:00.112Z,59.19
2022-08-02T06:38:03.696Z,57.60
2022-08-02T06:41:10.681Z,54.00
2022-08-02T06:47:39.377Z,54.82
2022-08-02T06:50:44.164Z,56.28
2022-08-02T06:53:47.220Z,55.64
2022-08-02T06:56:51.087Z,53.93
2022-08-02T06:59:53.675Z,51.85
2022-08-02T07:02:56.224Z,51.23
2022-08-02T07:05:58.738Z,51.19
2022-08-02T07:09:19.967Z,49.61
2022-08-02T07:12:24.617Z,49.39
2022-08-02T07:15:27.142Z,48.56
2022-08-02T07:18:29.850Z,47.50
2022-08-02T07:21:56.784Z,47.98
2022-08-02T07:24:56.162Z,48.82
2022-08-02T07:28:00.012Z,49.08
2022-08-02T07:31:03.844Z,47.89
2022-08-02T07:34:06.331Z,48.33
2022-08-02T07:37:09.835Z,49.38
2022-08-02T07:40:25.542Z,48.49
2022-08-02T07:43:29.479Z,48.49
2022-08-02T07:46:33.260Z,47.16
2022-08-02T07:49:35.830Z,49.24
2022-08-02T07:52:38.572Z,48.16
2022-08-02T07:55:41.103Z,45.62
2022-08-02T07:58:44.968Z,46.84
2022-08-02T08:01:49.271Z,49.55
2022-08-02T08:04:51.846Z,48.22
2022-08-02T08:07:54.322Z,46.86
2022-08-02T08:10:56.807Z,45.91
2022-08-02T08:14:00.633Z,44.36
2022-08-02T08:17:03.496Z,44.63
2022-08-02T08:20:07.026Z,45.43
2022-08-02T08:23:09.548Z,43.87
2022-08-02T08:26:15.648Z,45.13
2022-08-02T08:29:19.776Z,44.51
2022-08-02T08:32:22.562Z,44.71
2022-08-02T08:35:25.219Z,45.10
2022-08-02T08:38:28.525Z,45.38
2022-08-02T08:41:31.363Z,44.27
2022-08-02T08:44:35.315Z,45.05
2022-08-02T08:47:41.844Z,44.96
2022-08-02T08:50:48.550Z,43.67
2022-08-02T08:53:55.125Z,42.12
2022-08-02T08:56:58.618Z,41.10
2022-08-02T09:00:02.802Z,40.14
2022-08-02T09:03:06.324Z,40.32
2022-08-02T09:06:08.804Z,39.47
2022-08-02T09:09:11.290Z,41.36
2022-08-02T09:12:15.619Z,41.17
2022-08-02T09:15:25.762Z,38.63
2022-08-02T09:18:31.827Z,38.89
2022-08-02T09:21:38.888Z,40.24
2022-08-02T09:24:46.702Z,39.94
2022-08-02T09:27:49.403Z,41.53
2022-08-02T09:30:53.604Z,41.80
2022-08-02T09:33:57.826Z,38.28
2022-08-02T09:37:00.344Z,37.34
2022-08-02T09:40:05.648Z,39.22
2022-08-02T09:43:09.828Z,40.95
2022-08-02T09:46:15.564Z,41.17
2022-08-02T09:49:20.036Z,40.10
2022-08-02T09:52:37.193Z,38.66
2022-08-02T09:55:56.860Z,37.52
2022-08-02T09:58:59.391Z,35.80
2022-08-02T10:02:16.924Z,37.44
2022-08-02T10:05:22.210Z,38.07
2022-08-02T10:08:26.162Z,36.48
2022-08-02T10:11:29.572Z,37.63
2022-08-02T10:14:34.245Z,36.94
2022-08-02T10:17:38.909Z,37.25
2022-08-02T10:20:44.902Z,37.05
2022-08-02T10:23:50.747Z,36.73
2022-08-02T10:26:54.393Z,37.28
2022-08-02T10:30:00.143Z,37.12
2022-08-02T10:33:07.068Z,35.88
2022-08-02T10:36:11.439Z,36.90
2022-08-02T10:39:14.276Z,36.55
2022-08-02T10:42:44.571Z,37.30
2022-08-02T10:45:50.798Z,37.27
2022-08-02T10:49:37.412Z,37.46
2022-08-02T10:52:32.859Z,35.96
2022-08-02T10:55:46.195Z,36.18
2022-08-02T10:58:48.675Z,35.97
2022-08-02T11:01:51.848Z,35.51
2022-08-02T11:05:15.529Z,34.95
2022-08-02T11:08:22.193Z,36.04
2022-08-02T11:11:53.214Z,35.29
2022-08-02T11:14:59.093Z,36.03
2022-08-02T11:18:01.564Z,36.38
2022-08-02T11:21:24.712Z,35.01
2022-08-02T11:24:30.004Z,36.49
2022-08-02T11:27:32.567Z,36.75
2022-08-02T11:30:35.581Z,35.75
2022-08-02T11:33:38.059Z,35.78
2022-08-02T11:36:48.898Z,35.83
2022-08-02T11:39:51.640Z,37.72
2022-08-02T11:42:54.496Z,36.00
2022-08-02T11:45:57.316Z,35.55
2022-08-02T11:49:13.367Z,36.30
2022-08-02T11:52:17.258Z,36.51
2022-08-02T11:55:27.151Z,37.11
2022-08-02T11:58:29.648Z,38.63
2022-08-02T12:01:36.725Z,39.17
2022-08-02T12:04:53.887Z,39.91
2022-08-02T12:08:01.455Z,35.31
2022-08-02T12:11:04.395Z,34.60
2022-08-02T12:14:07.877Z,34.70
2022-08-02T12:17:28.831Z,33.28
2022-08-02T12:20:37.010Z,32.28
2022-08-02T12:23:59.940Z,33.26
2022-08-02T12:27:03.899Z,33.83
2022-08-02T12:30:09.539Z,34.27
2022-08-02T12:33:13.235Z,33.80
2022-08-02T12:36:17.288Z,33.73
2022-08-02T12:39:21.102Z,32.05
2022-08-02T12:42:23.580Z,32.61
2022-08-02T12:45:27.565Z,33.66
2022-08-02T12:48:56.811Z,33.53
2022-08-02T12:52:19.738Z,34.65
2022-08-02T12:55:59.789Z,35.32
2022-08-02T12:58:50.275Z,35.11
2022-08-02T13:01:53.038Z,36.02
2022-08-02T13:04:55.676Z,35.16
2022-08-02T13:08:00.299Z,33.49
2022-08-02T13:11:04.136Z,33.54
2022-08-02T13:14:06.631Z,35.79
2022-08-02T13:17:09.149Z,35.31
2022-08-02T13:20:14.485Z,35.52
2022-08-02T13:23:21.812Z,34.88
2022-08-02T13:26:31.233Z,34.49
2022-08-02T13:29:33.953Z,33.81
2022-08-02T13:32:36.564Z,34.21
2022-08-02T13:35:39.088Z,33.53
2022-08-02T13:38:41.563Z,33.36
2022-08-02T13:41:45.385Z,35.71
2022-08-02T13:44:47.889Z,34.84
2022-08-02T13:48:04.665Z,32.50
2022-08-02T13:51:11.966Z,34.33
2022-08-02T13:54:18.031Z,35.01
2022-08-02T13:57:21.931Z,34.20
2022-08-02T14:00:34.946Z,33.90
2022-08-02T14:04:06.135Z,33.76
2022-08-02T14:07:01.376Z,33.09
2022-08-02T14:10:04.320Z,32.29
2022-08-02T14:13:08.704Z,34.08
2022-08-02T14:16:11.943Z,34.99
2022-08-02T14:19:16.558Z,34.74
2022-08-02T14:22:19.888Z,32.90
2022-08-02T14:25:22.441Z,33.05
2022-08-02T14:28:26.720Z,34.07
2022-08-02T14:31:29.553Z,32.82
2022-08-02T14:34:32.123Z,33.55
2022-08-02T14:37:34.636Z,35.28
2022-08-02T14:40:37.328Z,36.97
2022-08-02T14:43:58.664Z,37.12
2022-08-02T14:47:01.286Z,37.87
2022-08-02T14:50:04.382Z,37.29
2022-08-02T14:53:07.001Z,38.06
2022-08-02T14:56:15.484Z,37.92
2022-08-02T14:59:19.301Z,35.97
2022-08-02T15:02:21.849Z,35.01
2022-08-02T15:05:24.343Z,34.96
2022-08-02T15:08:26.833Z,37.04
2022-08-02T15:11:29.636Z,36.71
2022-08-02T15:14:51.141Z,35.14
2022-08-02T15:17:53.716Z,37.32
2022-08-02T15:20:57.317Z,37.51
2022-08-02T15:24:00.614Z,37.42
2022-08-02T15:27:03.133Z,38.99
2022-08-02T15:30:08.931Z,39.33
2022-08-02T15:33:11.415Z,38.18
2022-08-02T15:36:13.949Z,37.97
2022-08-02T15:39:16.453Z,38.93
2022-08-02T15:42:19.318Z,39.12
2022-08-02T15:45:24.774Z,38.81
2022-08-02T15:48:27.267Z,38.41
2022-08-02T15:51:29.777Z,37.67
2022-08-02T15:54:32.297Z,38.21
2022-08-02T15:57:34.829Z,38.45
2022-08-02T16:00:40.253Z,36.34
2022-08-02T16:03:42.730Z,37.41
2022-08-02T16:06:45.491Z,37.61
2022-08-02T16:09:48.052Z,37.88
2022-08-02T16:12:50.685Z,37.53
2022-08-02T16:15:54.511Z,39.58
2022-08-02T16:18:57.418Z,39.88
2022-08-02T16:21:59.914Z,38.50
2022-08-02T16:25:02.565Z,38.69
2022-08-02T16:28:06.951Z,38.86
2022-08-02T16:31:11.893Z,38.96
2022-08-02T16:34:14.626Z,39.05
2022-08-02T16:37:17.127Z,40.92
2022-08-02T16:40:19.632Z,40.66
2022-08-02T16:43:22.372Z,40.43
2022-08-02T16:46:26.198Z,42.94
2022-08-02T16:50:04.042Z,40.95
2022-08-02T16:52:51.212Z,41.47
2022-08-02T16:55:54.278Z,41.04
2022-08-02T16:58:59.573Z,42.05
2022-08-02T17:02:15.357Z,41.65
2022-08-02T17:05:21.007Z,41.72
2022-08-02T17:08:23.750Z,43.38
2022-08-02T17:11:38.696Z,43.70
2022-08-02T17:14:55.684Z,44.32
2022-08-02T17:18:01.228Z,44.78
2022-08-02T17:21:04.791Z,43.80
2022-08-02T17:24:08.766Z,43.63
2022-08-02T17:27:11.874Z,43.20
2022-08-02T17:30:15.468Z,44.91
2022-08-02T17:33:19.378Z,46.23
2022-08-02T17:36:21.882Z,46.33
2022-08-02T17:39:25.130Z,45.18
2022-08-02T17:42:36.599Z,46.23
2022-08-02T17:49:20.370Z,45.20
2022-08-02T17:52:50.720Z,46.16
2022-08-02T17:55:51.043Z,47.20
2022-08-02T17:58:54.094Z,48.00
2022-08-02T18:01:58.011Z,49.33
2022-08-02T18:05:11.634Z,50.87
2022-08-02T18:08:14.664Z,50.76
2022-08-02T18:11:19.795Z,51.08
2022-08-02T18:14:46.187Z,52.17
2022-08-02T18:17:51.743Z,52.39
2022-08-02T18:21:16.045Z,52.82
2022-08-02T18:24:24.082Z,53.43
2022-08-02T18:27:26.777Z,54.84
2022-08-02T18:30:29.307Z,59.90
2022-08-02T18:33:58.318Z,60.43
2022-08-02T18:36:56.170Z,58.69
2022-08-02T18:39:58.649Z,59.43
2022-08-02T18:43:01.935Z,59.48
2022-08-02T18:46:15.433Z,59.48
2022-08-02T18:49:19.033Z,60.11
2022-08-02T18:52:30.923Z,61.44
2022-08-02T18:55:59.459Z,62.17
2022-08-02T18:58:57.366Z,63.31
2022-08-02T19:02:00.113Z,63.03
2022-08-02T19:05:02.701Z,63.65
2022-08-02T19:08:10.760Z,64.38
2022-08-02T19:11:13.501Z,66.89
2022-08-02T19:14:24.187Z,74.35
2022-08-02T19:17:54.310Z,75.20
2022-08-02T19:20:56.167Z,75.39
2022-08-02T19:24:02.167Z,74.30
2022-08-02T19:27:13.807Z,73.95
2022-08-02T19:30:18.215Z,73.99
2022-08-02T19:33:24.970Z,75.48
2022-08-02T19:36:43.478Z,76.01
2022-08-02T19:39:48.689Z,73.13
2022-08-02T19:44:25.378Z,72.53
2022-08-02T19:46:16.249Z,73.40
2022-08-02T19:52:42.225Z,76.75
2022-08-02T19:56:00.764Z,76.08
2022-08-02T19:59:13.048Z,75.24
2022-08-02T20:02:17.165Z,78.62
2022-08-02T20:05:26.587Z,78.26
2022-08-02T20:08:31.668Z,81.93
2022-08-02T20:11:40.084Z,83.40
2022-08-02T20:14:50.952Z,83.51
2022-08-02T20:17:54.025Z,81.12
2022-08-02T20:20:56.656Z,80.55
2022-08-02T20:23:59.613Z,81.33
2022-08-02T20:27:04.449Z,79.47
2022-08-02T20:30:08.138Z,80.56
2022-08-02T20:33:22.124Z,81.19
2022-08-02T20:36:25.208Z,82.03
2022-08-02T20:39:42.550Z,80.54
2022-08-02T20:42:48.485Z,81.37
2022-08-02T20:45:51.527Z,80.84
2022-08-02T20:48:55.940Z,80.06
2022-08-02T20:52:02.435Z,79.80
2022-08-02T20:55:05.471Z,80.74
2022-08-02T21:01:36.710Z,82.23
2022-08-02T21:04:39.787Z,82.00
2022-08-02T21:07:42.729Z,81.49
2022-08-02T21:10:52.349Z,82.21
2022-08-02T21:14:08.211Z,83.77
2022-08-02T21:17:11.655Z,83.76
2022-08-02T21:20:27.526Z,87.40
2022-08-02T21:23:36.568Z,89.08
2022-08-02T21:26:39.284Z,89.92
2022-08-02T21:29:44.297Z,89.76
2022-08-02T21:32:50.500Z,87.73
2022-08-02T21:35:54.381Z,86.67
2022-08-02T21:38:57.899Z,87.77
2022-08-02T21:42:00.727Z,87.57
2022-08-02T21:45:16.869Z,87.51
2022-08-02T21:48:20.080Z,87.82
2022-08-02T21:51:22.577Z,87.09
2022-08-02T21:54:25.735Z,90.39
2022-08-02T21:57:34.704Z,90.25
2022-08-02T22:00:38.926Z,89.00
2022-08-02T22:03:43.593Z,89.16
2022-08-02T22:06:58.783Z,88.71
2022-08-02T22:10:01.378Z,89.47
2022-08-02T22:13:05.240Z,92.01
2022-08-02T22:16:18.648Z,92.72
2022-08-02T22:19:21.197Z,93.85
2022-08-02T22:22:28.409Z,92.38
2022-08-02T22:25:37.420Z,91.10
2022-08-02T22:28:50.351Z,91.01
2022-08-02T22:31:56.766Z,91.15
2022-08-02T22:34:58.338Z,91.47
2022-08-02T22:38:15.002Z,91.63
2022-08-02T22:41:22.346Z,91.26
2022-08-02T22:44:24.877Z,90.95
2022-08-02T22:47:28.687Z,92.03
2022-08-02T22:50:41.212Z,92.76
2022-08-02T22:53:44.578Z,91.99
2022-08-02T22:56:47.919Z,91.63
2022-08-02T22:58:48.942Z,46.05
2022-08-02T22:58:53.232Z,74.49
2022-08-02T22:58:56.731Z,81.65
2022-08-02T22:59:50.409Z,90.04
2022-08-02T23:02:54.411Z,90.16
2022-08-02T23:05:57.127Z,91.12
2022-08-02T23:08:59.614Z,92.62
2022-08-02T23:12:02.163Z,92.74
2022-08-02T23:15:05.450Z,91.30
2022-08-02T23:18:27.158Z,90.17
2022-08-02T23:21:45.745Z,91.62
2022-08-02T23:24:55.176Z,92.23
2022-08-02T23:27:57.768Z,92.64
2022-08-02T23:31:00.361Z,92.56
2022-08-02T23:34:05.755Z,91.33
2022-08-02T23:37:08.598Z,89.44
2022-08-02T23:40:11.636Z,88.09
2022-08-02T23:43:15.359Z,86.71
2022-08-02T23:46:18.033Z,88.87
2022-08-02T23:49:23.175Z,90.55
2022-08-02T23:52:25.836Z,89.91
2022-08-02T23:55:28.352Z,89.17
2022-08-02T23:58:33.075Z,89.85
